Time;durP1;ratioP1;P1;durP2;ratioP2;P2;SDS_P1;SDS_P2;PMS_P1;PMS_P2;Temp;Humidity;BMP_temperature;BMP_pressure;BME280_temperature;BME280_humidity;BME280_pressure;Samples;Min_cycle;Max_cycle;Signal;HPM_P1;HPM_P2
2022/01/21 00:00:13;;;;;;;6.83;1.43;;;;;;;-1.42;86.19;102122.72;5071253;28;20298;-77
2022/01/21 00:02:40;;;;;;;7.33;1.90;;;;;;;-1.50;86.60;102109.47;5071729;28;20254;-77
2022/01/21 00:05:08;;;;;;;4.10;1.30;;;;;;;-1.54;86.50;102102.41;5071937;28;20235;-77
2022/01/21 00:07:34;;;;;;;7.30;1.87;;;;;;;-1.55;86.81;102098.06;5071407;28;20258;-79
2022/01/21 00:10:04;;;;;;;3.63;1.50;;;;;;;-1.54;86.53;102102.41;5070773;28;20269;-75
2022/01/21 00:12:32;;;;;;;6.57;1.93;;;;;;;-1.53;86.44;102113.53;5051982;28;20266;-76
2022/01/21 00:15:00;;;;;;;4.47;1.53;;;;;;;-1.54;86.44;102104.97;5051656;28;20266;-78
2022/01/21 00:17:26;;;;;;;6.37;1.50;;;;;;;-1.63;86.86;102105.31;5134621;22;20293;-84
2022/01/21 00:30:05;;;;;;;6.67;1.67;;;;;;;-1.64;86.79;102089.91;5097099;28;20745;-84
2022/01/21 00:30:52;;;;;;;5.60;1.43;;;;;;;-1.78;86.41;102122.38;5100986;28;20627;-83
2022/01/21 00:33:19;;;;;;;6.77;1.47;;;;;;;-1.78;86.15;102132.63;5101112;28;20208;-83
2022/01/21 00:35:45;;;;;;;4.43;1.30;;;;;;;-1.77;85.97;102136.03;5100659;28;20257;-81
2022/01/21 00:38:13;;;;;;;7.80;2.07;;;;;;;-1.76;85.82;102135.25;5100126;28;20212;-83
2022/01/21 00:40:40;;;;;;;4.63;1.83;;;;;;;-1.78;86.08;102140.28;5094726;28;20227;-83
2022/01/21 00:43:09;;;;;;;5.13;1.73;;;;;;;-1.82;86.46;102123.00;5080598;28;20584;-82
2022/01/21 00:45:37;;;;;;;15.90;2.17;;;;;;;-1.87;86.96;102107.34;5080529;28;20583;-84
2022/01/21 00:48:05;;;;;;;4.37;1.73;;;;;;;-1.84;87.39;102101.53;5079539;28;20219;-83
2022/01/21 00:50:32;;;;;;;3.03;1.67;;;;;;;-1.87;87.83;102083.44;5079483;28;20201;-84
2022/01/21 00:52:59;;;;;;;7.13;1.87;;;;;;;-1.87;88.25;102074.06;5080149;28;20670;-83
2022/01/21 00:55:25;;;;;;;8.07;2.07;;;;;;;-1.82;88.37;102074.38;5080320;28;20210;-84
2022/01/21 00:57:52;;;;;;;7.53;1.93;;;;;;;-1.78;87.95;102070.28;5080209;28;20211;-82
2022/01/21 01:00:19;;;;;;;6.40;2.23;;;;;;;-1.77;88.35;102066.94;5079166;28;20211;-82
2022/01/21 01:02:46;;;;;;;6.73;2.00;;;;;;;-1.82;88.40;102065.00;5080077;28;20231;-83
2022/01/21 01:05:13;;;;;;;3.00;1.83;;;;;;;-1.85;88.83;102057.13;5079691;28;20584;-83
2022/01/21 01:07:40;;;;;;;6.23;2.50;;;;;;;-1.87;88.94;102055.28;5085470;28;20207;-84
2022/01/21 01:10:11;;;;;;;4.77;1.93;;;;;;;-1.87;89.01;102053.59;5098405;28;20404;-83
2022/01/21 01:12:50;;;;;;;5.23;2.30;;;;;;;-1.91;89.77;102038.00;5080011;28;20231;-83
2022/01/21 01:20:44;;;;;;;9.53;2.40;;;;;;;-1.98;93.05;101929.31;5079237;28;20264;-84
2022/01/21 01:23:23;;;;;;;13.23;2.40;;;;;;;-1.99;93.56;101901.94;5083084;28;20660;-83
2022/01/21 01:28:34;;;;;;;5.90;2.20;;;;;;;-2.02;94.44;101884.75;5085069;28;20215;-84
2022/01/21 01:31:01;;;;;;;8.33;2.07;;;;;;;-1.93;94.72;101861.34;5081694;28;20232;-82
2022/01/21 01:33:35;;;;;;;7.63;2.03;;;;;;;-1.91;95.58;101848.63;5078078;28;20209;-83
2022/01/21 01:36:02;;;;;;;6.30;2.23;;;;;;;-1.83;96.48;101837.13;5078658;28;20203;-82
2022/01/21 01:38:46;;;;;;;9.87;2.50;;;;;;;-1.74;96.49;101819.72;5090790;28;20230;-82
2022/01/21 01:41:16;;;;;;;14.63;3.80;;;;;;;-1.74;96.52;101806.06;5097960;28;20231;-84
2022/01/21 01:51:46;;;;;;;11.10;2.33;;;;;;;-1.60;96.78;101803.41;5098186;28;20225;-83
2022/01/21 01:54:14;;;;;;;8.13;2.37;;;;;;;-1.64;96.77;101791.25;5097899;28;20260;-81
2022/01/21 01:56:44;;;;;;;16.00;2.57;;;;;;;-1.65;96.78;101794.59;5098508;28;20200;-83
2022/01/21 01:59:10;;;;;;;6.83;2.40;;;;;;;-1.64;96.84;101792.94;5098086;28;20603;-83
2022/01/21 02:01:37;;;;;;;12.47;3.00;;;;;;;-1.65;96.98;101793.72;5098223;28;20227;-81
2022/01/21 02:04:05;;;;;;;5.43;2.17;;;;;;;-1.66;97.00;101790.28;5098327;28;20233;-81
2022/01/21 02:06:31;;;;;;;8.27;2.80;;;;;;;-1.65;97.17;101793.72;5098340;28;20227;-82
2022/01/21 02:08:59;;;;;;;9.87;2.57;;;;;;;-1.66;97.32;101787.72;5098261;28;20233;-82
2022/01/21 02:11:26;;;;;;;10.07;3.00;;;;;;;-1.63;97.40;101790.41;5090248;28;20222;-80
2022/01/21 02:13:58;;;;;;;9.80;2.40;;;;;;;-1.61;97.67;101778.59;5097561;28;20694;-82
2022/01/21 02:16:37;;;;;;;6.80;2.40;;;;;;;-1.63;97.46;101775.06;5097957;28;20534;-83
2022/01/21 02:21:50;;;;;;;8.80;2.80;;;;;;;-1.67;97.50;101775.72;5096763;28;20340;-82
2022/01/21 02:24:21;;;;;;;5.83;3.10;;;;;;;-1.65;97.58;101761.31;5095481;28;20203;-80
2022/01/21 02:26:49;;;;;;;8.00;2.57;;;;;;;-1.57;97.66;101763.41;5097540;28;20616;-82
2022/01/21 02:29:27;;;;;;;13.23;2.73;;;;;;;-1.65;97.81;101766.44;5095096;28;20253;-80
2022/01/21 02:31:54;;;;;;;10.93;2.30;;;;;;;-1.65;97.77;101768.13;5097159;28;20223;-82
2022/01/21 02:34:21;;;;;;;11.50;2.20;;;;;;;-1.64;97.76;101759.66;5098145;28;20203;-83
2022/01/21 02:36:48;;;;;;;10.97;2.73;;;;;;;-1.67;97.88;101762.91;5097823;28;20291;-82
2022/01/21 02:39:15;;;;;;;8.93;2.43;;;;;;;-1.71;98.02;101755.88;5098769;28;20215;-83
2022/01/21 02:41:42;;;;;;;9.53;2.60;;;;;;;-1.71;98.05;101747.31;5098910;28;20222;-83
2022/01/21 02:44:14;;;;;;;8.67;3.20;;;;;;;-1.71;98.07;101744.75;5103335;28;20200;-82
2022/01/21 02:46:41;;;;;;;6.50;2.13;;;;;;;-1.76;98.25;101734.28;5094211;28;20245;-81
2022/01/21 02:49:08;;;;;;;9.70;3.03;;;;;;;-1.73;98.36;101731.00;5097169;28;20208;-82
2022/01/21 02:51:35;;;;;;;5.53;2.43;;;;;;;-1.72;98.63;101725.09;5097064;28;20269;-81
2022/01/21 02:54:05;;;;;;;7.53;2.27;;;;;;;-1.69;98.60;101717.56;5097938;28;20203;-83
2022/01/21 02:56:35;;;;;;;6.00;3.00;;;;;;;-1.59;98.64;101714.66;5095957;28;20196;-82
2022/01/21 02:59:02;;;;;;;7.60;3.13;;;;;;;-1.51;98.19;101710.81;5098165;28;20200;-79
2022/01/21 03:01:31;;;;;;;5.50;2.10;;;;;;;-1.48;98.28;101728.03;5097868;28;20243;-82
2022/01/21 03:03:58;;;;;;;11.20;2.63;;;;;;;-1.43;98.29;101729.13;5096819;28;20243;-83
2022/01/21 03:06:25;;;;;;;6.60;2.50;;;;;;;-1.40;98.30;101731.84;5096643;28;20322;-81
2022/01/21 03:08:54;;;;;;;13.60;2.67;;;;;;;-1.31;98.26;101734.91;5096217;28;20212;-84
2022/01/21 03:11:23;;;;;;;5.57;2.30;;;;;;;-1.28;98.36;101736.72;5084615;28;20224;-81
2022/01/21 03:13:51;;;;;;;10.60;3.10;;;;;;;-1.27;98.37;101728.22;5076590;28;20234;-82
2022/01/21 03:16:18;;;;;;;14.03;2.83;;;;;;;-1.24;98.13;101743.75;5076660;28;20266;-82
2022/01/21 03:18:45;;;;;;;5.53;3.27;;;;;;;-1.18;98.10;101745.75;5076175;28;20203;-79
2022/01/21 03:21:16;;;;;;;6.43;2.63;;;;;;;-1.18;98.07;101749.19;5075645;28;20234;-82
2022/01/21 03:23:46;;;;;;;11.77;3.83;;;;;;;-1.21;97.82;101755.03;5077429;28;20192;-81
2022/01/21 03:26:14;;;;;;;12.40;2.93;;;;;;;-1.23;97.64;101774.56;5077060;28;20231;-79
2022/01/21 03:28:41;;;;;;;10.47;3.00;;;;;;;-1.25;97.49;101767.59;5076222;28;20212;-81
2022/01/21 03:31:09;;;;;;;6.50;2.97;;;;;;;-1.27;97.58;101767.53;5076019;28;20236;-79
2022/01/21 03:33:35;;;;;;;9.87;2.83;;;;;;;-1.29;97.68;101776.81;5076706;28;20221;-82
2022/01/21 03:36:04;;;;;;;8.03;2.67;;;;;;;-1.24;97.69;101762.56;5077426;28;20203;-80
2022/01/21 03:38:31;;;;;;;7.90;2.30;;;;;;;-1.18;97.46;101768.81;5089150;28;20203;-81
2022/01/21 03:40:57;;;;;;;4.87;2.13;;;;;;;-1.14;97.47;101791.22;5088026;28;20228;-79
2022/01/21 03:43:25;;;;;;;7.30;2.37;;;;;;;-1.16;96.86;101800.50;5076636;28;20196;-81
2022/01/21 03:45:52;;;;;;;9.13;2.47;;;;;;;-1.10;97.00;101793.13;5075777;28;20223;-81
2022/01/21 03:48:20;;;;;;;10.73;2.37;;;;;;;-1.10;96.68;101803.38;5075191;28;20250;-83
2022/01/21 03:50:48;;;;;;;9.47;2.50;;;;;;;-1.07;96.49;101813.75;5075092;28;20649;-81
2022/01/21 03:53:14;;;;;;;4.57;1.93;;;;;;;-1.07;96.62;101827.47;5075967;28;20250;-81
2022/01/21 03:55:41;;;;;;;4.47;1.80;;;;;;;-0.93;96.40;101828.16;5076033;28;20196;-82
2022/01/21 03:58:09;;;;;;;8.97;1.83;;;;;;;-0.98;95.96;101834.72;5078029;28;20212;-82
2022/01/21 04:00:38;;;;;;;8.30;2.10;;;;;;;-1.20;96.09;101840.44;5080021;28;20205;-81
2022/01/21 04:03:05;;;;;;;7.57;1.63;;;;;;;-1.27;96.80;101821.34;5079677;28;20276;-81
2022/01/21 04:05:34;;;;;;;5.90;2.33;;;;;;;-1.21;97.17;101797.69;5079723;28;20200;-82
2022/01/21 04:08:02;;;;;;;7.20;2.50;;;;;;;-1.18;97.45;101797.84;5088994;28;20263;-78
2022/01/21 04:10:28;;;;;;;8.60;2.80;;;;;;;-1.20;97.72;101784.97;5091064;28;20206;-81
2022/01/21 04:12:55;;;;;;;9.23;2.43;;;;;;;-1.14;98.11;101791.22;5100744;28;20211;-79
2022/01/21 04:15:22;;;;;;;12.70;2.00;;;;;;;-1.15;98.19;101774.97;5101265;28;20257;-82
2022/01/21 04:17:49;;;;;;;7.30;2.17;;;;;;;-1.06;98.59;101772.84;5100426;28;20235;-83
2022/01/21 04:20:16;;;;;;;8.47;2.53;;;;;;;-1.02;98.12;101764.50;5100944;28;20200;-83
2022/01/21 04:22:44;;;;;;;8.07;2.17;;;;;;;-0.94;98.01;101777.69;5101936;28;20720;-81
2022/01/21 04:25:11;;;;;;;7.77;1.70;;;;;;;-0.83;97.55;101791.06;5100624;28;20204;-82
2022/01/21 04:27:38;;;;;;;7.07;1.70;;;;;;;-0.73;96.96;101813.78;5101533;28;20220;-84
2022/01/21 04:30:07;;;;;;;8.33;2.00;;;;;;;-0.78;96.53;101832.28;5100873;28;20208;-82
2022/01/21 04:32:34;;;;;;;15.87;2.50;;;;;;;-0.80;97.02;101819.38;5101652;28;20224;-83
2022/01/21 04:35:00;;;;;;;8.17;1.93;;;;;;;-0.77;96.22;101816.09;5100342;28;20256;-84
2022/01/21 04:37:27;;;;;;;4.03;1.67;;;;;;;-0.66;96.51;101828.63;5100494;28;20203;-82
2022/01/21 04:40:00;;;;;;;5.40;1.63;;;;;;;-0.65;96.19;101832.97;5100075;28;20195;-82
2022/01/21 04:47:54;;;;;;;4.07;1.43;;;;;;;-0.29;95.82;101835.56;5080149;28;20220;-82
2022/01/21 04:50:21;;;;;;;6.97;1.80;;;;;;;-0.39;95.76;101835.94;5079667;28;20208;-83
2022/01/21 04:52:47;;;;;;;8.23;1.37;;;;;;;-0.39;95.54;101835.94;5080566;28;20232;-83
2022/01/21 04:55:15;;;;;;;10.00;2.00;;;;;;;-0.44;96.01;101839.94;5080343;28;20227;-82
2022/01/21 04:57:42;;;;;;;11.00;2.10;;;;;;;-0.45;95.71;101843.31;5080306;28;20251;-82
2022/01/21 05:00:10;;;;;;;8.40;1.83;;;;;;;-0.42;95.81;101838.31;5080568;28;20211;-81
2022/01/21 05:02:36;;;;;;;11.60;2.20;;;;;;;-0.45;96.17;101836.50;5080038;28;20270;-82
2022/01/21 05:05:03;;;;;;;9.40;1.93;;;;;;;-0.49;96.03;101834.59;5080423;28;20234;-80
2022/01/21 05:07:33;;;;;;;6.77;1.83;;;;;;;-0.48;96.31;101835.47;5083635;28;20693;-81
2022/01/21 05:10:00;;;;;;;10.43;2.07;;;;;;;-0.48;95.71;101836.34;5098315;28;20209;-79
2022/01/21 05:12:28;;;;;;;5.63;1.60;;;;;;;-0.52;95.67;101836.13;5080447;28;20225;-84
2022/01/21 05:15:10;;;;;;;4.70;1.53;;;;;;;-0.57;96.08;101832.47;5080308;28;20208;-83
2022/01/21 05:17:43;;;;;;;7.60;1.90;;;;;;;-0.57;95.59;101838.47;5080480;28;20238;-82
2022/01/21 05:20:11;;;;;;;5.53;2.87;;;;;;;-0.65;96.28;101832.97;5080349;28;20208;-80
2022/01/21 05:22:38;;;;;;;7.07;1.80;;;;;;;-0.75;96.49;101830.75;5080002;28;20278;-82
2022/01/21 05:25:05;;;;;;;6.07;1.63;;;;;;;-0.75;96.26;101815.38;5080501;28;20693;-82
2022/01/21 05:27:33;;;;;;;9.93;1.97;;;;;;;-0.76;95.87;101813.59;5080457;28;20247;-82
2022/01/21 05:30:00;;;;;;;15.43;1.77;;;;;;;-0.77;96.12;101810.97;5079598;28;20573;-82
2022/01/21 05:32:26;;;;;;;6.93;2.13;;;;;;;-0.76;96.28;101803.34;5079482;28;20227;-83
2022/01/21 05:34:53;;;;;;;7.57;2.20;;;;;;;-0.70;95.82;101798.53;5080312;28;20587;-82
2022/01/21 05:37:19;;;;;;;2.60;1.37;;;;;;;-0.72;95.99;101809.50;5083463;28;20622;-83
2022/01/21 05:39:46;;;;;;;9.73;1.83;;;;;;;-0.77;95.71;101810.97;5092573;22;20236;-78
2022/01/21 05:42:12;;;;;;;6.47;1.80;;;;;;;-0.71;96.02;101809.59;5079226;28;20266;-79
2022/01/21 05:47:24;;;;;;;7.17;1.97;;;;;;;-0.66;95.69;101833.75;5079777;28;20238;-78
2022/01/21 05:49:50;;;;;;;8.17;1.70;;;;;;;-0.72;96.20;101830.91;5078672;28;20228;-79
2022/01/21 05:52:19;;;;;;;7.50;1.93;;;;;;;-0.66;95.99;101830.31;5078922;28;20212;-78
2022/01/21 05:54:46;;;;;;;4.40;1.90;;;;;;;-0.73;96.02;101824.03;5079463;28;20234;-79
2022/01/21 05:57:16;;;;;;;11.97;2.23;;;;;;;-0.70;95.63;101820.72;5079991;28;20627;-78
2022/01/21 05:59:45;;;;;;;7.27;1.83;;;;;;;-0.66;95.67;101830.31;5079112;28;20220;-79
2022/01/21 06:02:12;;;;;;;6.83;1.60;;;;;;;-0.67;95.52;101832.03;5079506;28;20224;-78
2022/01/21 06:04:43;;;;;;;7.83;1.60;;;;;;;-0.61;95.95;101840.00;5079201;28;20208;-79
2022/01/21 06:07:10;;;;;;;6.30;2.17;;;;;;;-0.64;95.72;101832.16;5079052;28;20266;-78
2022/01/21 06:09:37;;;;;;;4.23;1.83;;;;;;;-0.52;95.64;101843.81;5077563;28;20221;-78
2022/01/21 06:12:04;;;;;;;4.00;1.80;;;;;;;-0.54;95.53;101835.19;5070080;28;20205;-78
2022/01/21 06:14:30;;;;;;;6.03;1.80;;;;;;;-0.54;96.00;101833.47;5058885;28;20307;-79
2022/01/21 06:16:58;;;;;;;4.40;1.57;;;;;;;-0.54;95.93;101809.53;5058505;28;20722;-79
2022/01/21 06:19:24;;;;;;;7.17;2.50;;;;;;;-0.50;96.41;101809.75;5058594;28;20252;-78
2022/01/21 06:21:51;;;;;;;5.87;2.17;;;;;;;-0.44;96.02;101804.94;5058266;28;20266;-78
2022/01/21 06:24:17;;;;;;;7.47;1.67;;;;;;;-0.43;96.40;101798.13;5058891;28;20197;-79
2022/01/21 06:26:44;;;;;;;4.27;1.37;;;;;;;-0.42;96.13;101808.44;5059108;28;20225;-79
2022/01/21 06:29:11;;;;;;;4.43;1.80;;;;;;;-0.34;96.12;101813.91;5059201;28;20226;-78
2022/01/21 06:31:37;;;;;;;11.37;1.40;;;;;;;-0.25;96.63;101814.38;5058099;28;20205;-78
2022/01/21 06:34:05;;;;;;;6.03;1.67;;;;;;;-0.22;96.11;101817.09;5058480;28;20205;-78
2022/01/21 06:36:31;;;;;;;8.87;1.70;;;;;;;-0.22;96.21;101821.31;5056257;28;20796;-78
2022/01/21 06:38:57;;;;;;;3.70;1.77;;;;;;;-0.18;96.23;101820.66;5068913;28;20297;-79
2022/01/21 06:41:24;;;;;;;6.77;2.47;;;;;;;-0.12;96.30;101828.66;5073879;28;20261;-78
2022/01/21 06:43:51;;;;;;;5.87;1.67;;;;;;;-0.12;96.23;101838.03;5076545;28;20197;-79
2022/01/21 06:46:17;;;;;;;7.27;1.90;;;;;;;-0.16;96.06;101838.69;5076363;28;20278;-79
2022/01/21 06:48:43;;;;;;;5.90;1.60;;;;;;;-0.12;96.88;101831.25;5071796;28;20239;-79
2022/01/21 06:51:11;;;;;;;3.23;1.50;;;;;;;-0.10;96.90;101834.75;5071662;28;20616;-80
2022/01/21 06:53:38;;;;;;;6.63;1.57;;;;;;;-0.14;97.21;101825.16;5072887;28;20581;-79
2022/01/21 06:56:04;;;;;;;5.80;1.70;;;;;;;-0.13;97.14;101831.16;5076243;28;20200;-79
2022/01/21 06:58:31;;;;;;;5.77;1.60;;;;;;;-0.12;97.57;101815.84;5076278;28;20213;-79
2022/01/21 07:00:57;;;;;;;6.17;1.70;;;;;;;-0.09;97.12;101817.66;5073495;28;20196;-79
2022/01/21 07:03:25;;;;;;;9.33;2.03;;;;;;;-0.05;97.64;101811.84;5075520;28;20196;-78
2022/01/21 07:05:51;;;;;;;9.87;1.80;;;;;;;0.03;97.28;101812.22;5076778;28;20215;-80
2022/01/21 07:08:19;;;;;;;3.70;1.57;;;;;;;0.02;97.62;101819.06;5072917;28;20777;-79
2022/01/21 07:10:45;;;;;;;5.20;1.70;;;;;;;0.03;96.87;101825.94;5075068;28;20204;-78
2022/01/21 07:13:12;;;;;;;6.43;2.33;;;;;;;0.03;97.34;101825.06;5075160;28;20197;-78
2022/01/21 07:15:38;;;;;;;5.10;1.33;;;;;;;0.09;96.87;101815.94;5072717;28;20199;-80
2022/01/21 07:18:05;;;;;;;3.57;1.47;;;;;;;0.20;96.24;101839.56;5075243;28;20545;-78
2022/01/21 07:20:31;;;;;;;4.53;1.80;;;;;;;0.25;96.24;101855.16;5069043;28;20193;-79
2022/01/21 07:22:58;;;;;;;4.40;1.10;;;;;;;0.31;96.40;101858.00;5076270;28;20564;-79
2022/01/21 07:25:27;;;;;;;3.50;1.60;;;;;;;0.43;95.89;101876.53;5076024;28;20258;-79
2022/01/21 07:27:53;;;;;;;6.07;1.23;;;;;;;0.52;94.69;101902.66;5074937;28;20232;-78
2022/01/21 07:30:20;;;;;;;6.87;1.20;;;;;;;0.53;95.08;101903.53;5074894;28;20196;-78
2022/01/21 07:32:46;;;;;;;3.80;1.43;;;;;;;0.55;94.70;101914.75;5074340;28;20200;-78
2022/01/21 07:35:14;;;;;;;7.45;1.70;;;;;;;0.58;95.35;101920.91;5074615;28;20511;-78
2022/01/21 07:37:41;;;;;;;5.53;1.40;;;;;;;0.64;95.17;101925.47;5075104;28;20223;-79
2022/01/21 07:40:08;;;;;;;6.37;1.63;;;;;;;0.61;95.51;101903.88;5074410;28;20793;-81
2022/01/21 07:42:36;;;;;;;5.70;1.30;;;;;;;0.60;96.15;101890.16;5075368;28;20223;-78
2022/01/21 07:45:03;;;;;;;5.67;1.60;;;;;;;0.46;97.39;101866.41;5076437;28;20647;-80
2022/01/21 07:47:30;;;;;;;7.10;2.03;;;;;;;0.43;98.96;101829.44;5075334;28;20600;-78
2022/01/21 07:49:56;;;;;;;7.37;1.50;;;;;;;0.32;100.00;101790.44;5071256;28;20281;-78
2022/01/21 07:52:23;;;;;;;5.67;1.47;;;;;;;0.27;100.00;101769.66;5071419;28;20200;-79
2022/01/21 07:54:49;;;;;;;5.07;1.60;;;;;;;0.24;100.00;101755.81;5075426;28;20266;-79
2022/01/21 07:57:18;;;;;;;8.40;2.60;;;;;;;0.13;100.00;101722.84;5075095;28;20258;-78
2022/01/21 07:59:45;;;;;;;6.27;2.33;;;;;;;0.14;100.00;101709.22;5074809;28;20270;-79
2022/01/21 08:02:12;;;;;;;5.83;1.90;;;;;;;0.11;100.00;101691.09;5074573;28;20729;-81
2022/01/21 08:04:38;;;;;;;13.93;5.00;;;;;;;0.13;100.00;101686.91;5075994;28;20226;-79
2022/01/21 08:07:05;;;;;;;7.37;2.60;;;;;;;0.16;100.00;101669.06;5075549;28;20227;-79
2022/01/21 08:09:31;;;;;;;9.37;2.43;;;;;;;0.15;100.00;101664.75;5074733;28;20224;-79
2022/01/21 08:11:58;;;;;;;6.23;2.00;;;;;;;0.21;100.00;101653.84;5067615;28;20197;-80
2022/01/21 08:14:24;;;;;;;5.67;2.00;;;;;;;0.21;100.00;101653.84;5056001;28;20265;-79
2022/01/21 08:16:54;;;;;;;8.50;2.30;;;;;;;0.22;100.00;101647.03;5056051;28;20205;-80
2022/01/21 08:19:20;;;;;;;13.93;3.00;;;;;;;0.24;100.00;101651.44;5060789;28;20240;-79
2022/01/21 08:21:47;;;;;;;5.70;2.72;;;;;;;0.30;100.00;101659.41;5075652;28;20460;-80
2022/01/21 08:24:13;;;;;;;8.67;3.00;;;;;;;0.31;100.00;101658.56;5065308;28;20198;-80
2022/01/21 08:26:42;;;;;;;9.18;3.17;;;;;;;0.39;100.00;101661.47;5073372;28;20443;-79
2022/01/21 08:29:09;;;;;;;8.00;2.95;;;;;;;0.45;100.00;101668.56;5056064;28;20460;-80
2022/01/21 08:31:35;;;;;;;3.27;1.93;;;;;;;0.52;100.00;101671.44;5062878;28;20250;-79
2022/01/21 08:34:03;;;;;;;6.03;2.10;;;;;;;0.63;100.00;101682.16;5076076;28;20201;-79
2022/01/21 08:36:30;;;;;;;2.17;1.20;;;;;;;0.55;100.00;101693.81;5075477;28;20389;-80
2022/01/21 08:38:56;;;;;;;6.50;2.03;;;;;;;0.55;100.00;101691.25;5074076;28;20241;-79
2022/01/21 08:41:23;;;;;;;5.17;1.83;;;;;;;0.53;100.00;101701.44;5071169;28;20247;-79
2022/01/21 08:43:49;;;;;;;4.20;1.93;;;;;;;0.66;100.00;101702.84;5054982;28;20207;-79
2022/01/21 08:46:16;;;;;;;6.03;2.27;;;;;;;0.66;100.00;101708.00;5075917;28;20282;-78
2022/01/21 08:48:44;;;;;;;6.20;2.20;;;;;;;0.65;100.00;101710.50;5077884;28;20687;-79
2022/01/21 08:51:18;;;;;;;3.73;2.13;;;;;;;0.66;100.00;101719.97;5075696;28;20702;-79
2022/01/21 08:53:46;;;;;;;5.80;1.80;;;;;;;0.68;100.00;101720.91;5073295;28;20276;-79
2022/01/21 08:56:14;;;;;;;3.13;2.03;;;;;;;0.75;100.00;101728.94;5068827;28;20287;-78
2022/01/21 08:58:42;;;;;;;4.80;2.00;;;;;;;0.81;100.00;101745.41;5072233;28;20298;-78
2022/01/21 09:01:09;;;;;;;4.40;2.20;;;;;;;0.87;100.00;101756.81;5058784;28;20206;-77
2022/01/21 09:03:36;;;;;;;5.73;1.70;;;;;;;0.97;100.00;101771.84;5074239;28;20656;-79
2022/01/21 09:06:03;;;;;;;5.30;1.30;;;;;;;1.02;99.52;101791.72;5077284;28;20197;-79
2022/01/21 09:08:32;;;;;;;2.70;1.30;;;;;;;1.03;99.92;101803.75;5078215;28;20216;-80
2022/01/21 09:11:00;;;;;;;5.43;1.40;;;;;;;1.08;99.50;101812.53;5082592;28;20193;-78
2022/01/21 09:13:29;;;;;;;4.90;2.73;;;;;;;1.07;99.05;101831.34;5086547;28;20193;-79
2022/01/21 09:15:59;;;;;;;3.43;2.00;;;;;;;1.13;98.78;101842.78;5087980;28;20280;-78
2022/01/21 09:18:32;;;;;;;6.13;1.83;;;;;;;1.20;98.71;101854.19;5083673;28;20702;-78
2022/01/21 09:20:59;;;;;;;8.87;2.37;;;;;;;1.16;98.83;101857.47;5086672;28;20205;-78
2022/01/21 09:23:25;;;;;;;5.97;2.23;;;;;;;1.18;98.62;101861.84;5068845;28;20201;-79
2022/01/21 09:25:53;;;;;;;4.57;2.13;;;;;;;1.33;99.05;101876.19;5076566;28;20578;-79
2022/01/21 09:28:19;;;;;;;6.63;2.67;;;;;;;1.34;97.90;101890.78;5076539;28;20895;-79
2022/01/21 09:30:45;;;;;;;3.50;2.07;;;;;;;1.31;97.63;101891.56;5076192;28;20205;-80
2022/01/21 09:33:12;;;;;;;4.77;1.80;;;;;;;1.33;97.70;101886.47;5077418;28;20213;-78
2022/01/21 09:35:38;;;;;;;3.90;1.80;;;;;;;1.30;97.88;101896.63;5077514;28;20611;-80
2022/01/21 09:38:05;;;;;;;2.87;1.80;;;;;;;1.29;97.62;101894.84;5076854;28;20205;-79
2022/01/21 09:40:33;;;;;;;6.17;3.00;;;;;;;1.41;97.86;101899.63;5077227;28;20282;-79
2022/01/21 09:43:03;;;;;;;4.70;2.40;;;;;;;1.47;97.48;101900.78;5076770;28;20426;-82
2022/01/21 09:45:30;;;;;;;3.17;1.47;;;;;;;1.47;97.31;101910.22;5076461;28;20581;-80
2022/01/21 09:48:01;;;;;;;5.43;2.43;;;;;;;1.42;96.83;101915.13;5077507;28;20282;-80
2022/01/21 09:50:28;;;;;;;12.60;2.70;;;;;;;1.46;96.65;101914.44;5075508;28;20660;-79
2022/01/21 09:52:54;;;;;;;3.40;1.90;;;;;;;1.37;97.43;101914.09;5076187;28;20468;-80
2022/01/21 09:55:22;;;;;;;4.23;2.40;;;;;;;1.43;97.11;101911.78;5075277;28;20205;-80
2022/01/21 09:57:51;;;;;;;5.17;3.10;;;;;;;1.46;97.88;101899.00;5076810;28;20558;-78
2022/01/21 10:00:20;;;;;;;4.87;2.07;;;;;;;1.47;97.38;101898.22;5075476;28;20255;-79
2022/01/21 10:02:48;;;;;;;5.67;2.10;;;;;;;1.45;97.47;101907.56;5061223;28;20197;-80
2022/01/21 10:05:15;;;;;;;7.03;2.00;;;;;;;1.48;97.08;101906.81;5055528;28;20201;-78
2022/01/21 10:07:45;;;;;;;3.50;2.40;;;;;;;1.34;97.80;101896.81;5055789;28;20225;-79
2022/01/21 10:10:11;;;;;;;5.60;2.60;;;;;;;1.34;98.19;101875.34;5070998;28;20251;-78
2022/01/21 10:12:39;;;;;;;8.70;2.37;;;;;;;1.35;98.60;101880.56;5061940;28;20210;-79
2022/01/21 10:15:08;;;;;;;8.00;2.60;;;;;;;1.40;99.02;101873.03;5057541;28;20206;-78
2022/01/21 10:17:36;;;;;;;2.67;2.03;;;;;;;1.50;98.76;101875.16;5055227;28;20208;-80
2022/01/21 10:20:13;;;;;;;2.50;2.30;;;;;;;1.62;97.81;101873.94;5056666;28;20592;-79
2022/01/21 10:22:39;;;;;;;3.63;2.13;;;;;;;1.70;97.95;101881.13;5057479;28;20553;-79
2022/01/21 10:25:12;;;;;;;7.27;2.40;;;;;;;1.58;98.16;101893.50;5058065;28;20205;-80
2022/01/21 10:27:39;;;;;;;7.17;2.33;;;;;;;1.59;98.20;101875.56;5057613;28;20576;-79
2022/01/21 10:30:20;;;;;;;6.87;2.13;;;;;;;1.65;97.90;101885.22;5057921;28;20229;-79
2022/01/21 10:32:48;;;;;;;6.03;2.13;;;;;;;1.63;97.49;101876.56;5057693;28;20243;-79
2022/01/21 10:35:22;;;;;;;5.90;1.73;;;;;;;1.71;98.13;101908.63;5058126;28;20205;-80
2022/01/21 10:37:49;;;;;;;2.93;1.97;;;;;;;1.73;97.49;101899.28;5057696;28;20204;-79
2022/01/21 10:40:21;;;;;;;5.90;2.33;;;;;;;1.73;97.40;101906.13;5071778;28;20237;-80
2022/01/21 10:42:48;;;;;;;5.03;2.10;;;;;;;1.74;97.38;101921.63;5059607;28;20289;-80
2022/01/21 10:45:19;;;;;;;5.63;1.93;;;;;;;1.73;97.34;101916.44;5054662;28;20255;-80
2022/01/21 10:47:50;;;;;;;3.13;2.00;;;;;;;1.73;97.55;101921.59;5055783;28;20220;-79
2022/01/21 10:50:22;;;;;;;5.50;2.30;;;;;;;1.63;97.62;101911.72;5055869;28;20209;-79
2022/01/21 10:52:52;;;;;;;5.83;2.40;;;;;;;1.73;97.59;101911.28;5065434;28;20197;-80
2022/01/21 10:55:29;;;;;;;8.00;2.83;;;;;;;1.86;97.23;101918.66;5075708;28;20215;-79
2022/01/21 10:58:07;;;;;;;6.67;2.50;;;;;;;1.88;96.81;101944.47;5067891;28;20235;-79
2022/01/21 11:00:34;;;;;;;5.80;2.33;;;;;;;1.80;96.63;101946.75;5055875;28;20209;-79
2022/01/21 11:03:11;;;;;;;5.00;2.70;;;;;;;1.94;96.40;101950.78;5056654;28;20252;-79
2022/01/21 11:05:44;;;;;;;4.47;2.30;;;;;;;1.94;96.76;101955.94;5056111;28;20721;-79
2022/01/21 11:08:13;;;;;;;8.27;2.83;;;;;;;2.00;96.37;101960.41;5056606;28;20212;-80
2022/01/21 11:10:43;;;;;;;7.43;2.47;;;;;;;2.09;96.05;101959.94;5075556;28;20339;-80
2022/01/21 11:13:34;;;;;;;5.07;2.30;;;;;;;2.05;96.24;101960.63;5076432;28;20254;-78
2022/01/21 11:16:06;;;;;;;5.30;2.70;;;;;;;2.09;96.03;101959.94;5076642;28;20189;-79
2022/01/21 11:18:34;;;;;;;5.37;2.60;;;;;;;2.11;96.46;101977.19;5076571;28;20784;-80
2022/01/21 11:21:07;;;;;;;4.50;2.60;;;;;;;2.18;96.45;101968.00;5075465;28;20267;-80
2022/01/21 11:23:35;;;;;;;3.63;2.97;;;;;;;2.26;96.13;101976.06;5075132;28;20207;-80
2022/01/21 11:26:08;;;;;;;6.90;3.00;;;;;;;2.19;95.42;102000.69;5076600;28;20205;-80
2022/01/21 11:28:42;;;;;;;3.67;1.90;;;;;;;2.29;95.13;102007.97;5068925;28;20220;-79
2022/01/21 11:31:09;;;;;;;7.23;2.30;;;;;;;2.31;95.05;102008.91;5059971;28;20284;-78
2022/01/21 11:33:37;;;;;;;5.10;2.57;;;;;;;2.42;94.98;102005.88;5071432;28;20256;-78
2022/01/21 11:36:05;;;;;;;5.10;2.20;;;;;;;2.34;94.90;102021.06;5056584;28;20201;-78
2022/01/21 11:38:36;;;;;;;7.00;2.00;;;;;;;2.32;95.32;102013.25;5058506;28;20282;-80
2022/01/21 11:41:04;;;;;;;6.87;2.17;;;;;;;2.47;95.60;102006.97;5101868;22;20200;-76
2022/01/21 11:43:33;;;;;;;4.13;1.97;;;;;;;2.38;95.09;102003.19;5084215;28;20233;-80
2022/01/21 11:46:19;;;;;;;8.17;2.13;;;;;;;2.41;95.75;101997.28;5088488;28;20235;-78
2022/01/21 11:48:53;;;;;;;5.00;1.80;;;;;;;2.48;95.81;101996.72;5094211;28;20720;-79
2022/01/21 11:51:22;;;;;;;3.77;2.00;;;;;;;2.62;95.23;102001.50;5093889;28;21861;-78
2022/01/21 11:53:50;;;;;;;12.00;2.50;;;;;;;2.56;95.02;101999.59;5086451;28;20257;-79
2022/01/21 11:56:32;;;;;;;5.37;1.93;;;;;;;2.49;95.15;102003.59;5089772;28;20356;-77
2022/01/21 11:59:08;;;;;;;5.30;1.90;;;;;;;2.40;95.41;101987.81;5087479;28;20200;-78
2022/01/21 12:01:39;;;;;;;7.67;2.57;;;;;;;2.44;95.86;101992.25;5085822;28;20219;-78
2022/01/21 12:04:07;;;;;;;3.83;1.67;;;;;;;2.47;95.62;101984.63;5093060;28;20211;-78
2022/01/21 12:06:34;;;;;;;3.73;1.97;;;;;;;2.44;95.76;101987.09;5093172;28;20208;-78